Garden Spring, Nevada Weather observations

Data are for 10 minute period ending at time listed.
 Day   Time    Ave.   Ave.  Ave.  Vector   Max.   Stn.    Total    Solar   Ave.  
  of    of     Air    Rel.  Wind   Wind    Wind   Baro.  Precip.   Rad.    Soil  
Year   Day     Temp.  Hum.  Speed  Dir.    Gust   Pres.                    Temp. 
2016   (PST)    F      %     mph   deg.    mph     mb.     in.     W/m2     F    
--------------------------------------------------------------------------------- 
 240   22:00   59.8    69    4.2   266      6.8   855.6    0.00       0    76.0  
 240   23:00   58.5    71    4.2   283      6.7   855.8    0.00       0    75.2  
 241    0:00   58.7    71    4.1   282      6.2   855.9    0.00       0    74.4  
 241    1:00   58.2    72    4.2   274      6.4   856.0    0.00       0    73.7  
 241    2:00   57.7    75    4.4   275      6.4   856.2    0.00       0    73.0  
 241    3:00   57.7    75    4.3   274      6.5   856.2    0.00       0    72.4  
 241    4:00   57.7    74    4.6   271      6.8   856.3    0.00       0    71.8  
 241    5:00   58.0    72    4.4   267      7.0   856.5    0.00       0    71.3  
 241    6:00   60.2    66    4.1   274      6.8   856.8    0.00      52    71.0  
 241    7:00   70.8    46    1.7    41      7.7   857.3    0.00     234    71.2  
 241    8:00   73.1    41    4.1    80      8.2   857.5    0.00     437    71.3  
 241    9:00   75.6    36    4.1   101     10.1   857.8    0.00     622    71.9  
 241   10:00   76.8    34    4.7   129     11.4   857.9    0.00     773    72.8  
 241   11:00   78.8    32    4.8   143     11.5   857.7    0.00     874    73.8  
 241   12:00   80.8    31    4.8   146     11.1   857.4    0.00     915    75.5  
 241   13:00   82.7    29    5.4   166     12.5   857.1    0.00     894    78.6  
 241   14:00   83.6    28    5.8   172     13.6   856.5    0.00     817    82.1  
 241   15:00   84.5    26    6.3   170     13.3   855.9    0.00     674    84.6  
 241   16:00   85.3    24    6.3   166     13.5   855.7    0.00     541    86.0  
 241   17:00   85.5    22    5.2   193     12.9   855.5    0.00     361    86.3  
 241   18:00   81.4    26    4.6   194     10.5   855.6    0.00      86    85.6  
 241   19:00   77.2    31    2.9   244      4.9   855.8    0.00       3    84.8  
 241   20:00   72.8    38    2.7   291      5.4   856.3    0.00       0    83.8  
 241   21:00   70.2    40    3.9   284      6.1   856.6    0.00       0    82.7  

Return to Garden Spring, Nevada graphs page.


Western Regional Climate Center,wrcc@dri.edu